Time;durP1;ratioP1;P1;durP2;ratioP2;P2;SDS_P1;SDS_P2;PMS_P1;PMS_P2;Temp;Humidity;BMP_temperature;BMP_pressure;BME280_temperature;BME280_humidity;BME280_pressure;Samples;Min_cycle;Max_cycle;Signal;HPM_P1;HPM_P2
2023/12/02 00:01:11;;;;;;;6.90;5.93;;;;;;;-0.40;100.00;97777.91;5107059;28;20384;-80
2023/12/02 00:03:37;;;;;;;6.33;5.73;;;;;;;-0.41;100.00;97773.66;5101978;28;20187;-81
2023/12/02 00:06:06;;;;;;;6.83;5.50;;;;;;;-0.35;100.00;97764.97;5105362;28;20212;-81
2023/12/02 00:08:35;;;;;;;6.97;6.20;;;;;;;-0.41;100.00;97751.78;5092298;28;20228;-80
2023/12/02 00:11:03;;;;;;;6.53;5.93;;;;;;;-0.43;100.00;97736.22;5099492;28;20216;-80
2023/12/02 00:13:29;;;;;;;5.90;5.30;;;;;;;-0.35;100.00;97725.50;5096748;28;20200;-83
2023/12/02 00:15:56;;;;;;;6.60;6.00;;;;;;;-0.39;100.00;97729.53;5093957;28;20197;-80
2023/12/02 00:18:23;;;;;;;7.13;5.63;;;;;;;-0.34;100.00;97721.06;5100911;28;20655;-82
2023/12/02 00:20:51;;;;;;;6.50;5.80;;;;;;;-0.41;100.00;97730.72;5091210;28;20195;-80
2023/12/02 00:23:18;;;;;;;6.10;5.50;;;;;;;-0.48;100.00;97730.72;5107972;28;20195;-82
2023/12/02 00:25:45;;;;;;;5.40;4.90;;;;;;;-0.46;100.00;97723.44;5095101;28;20212;-80
2023/12/02 00:28:11;;;;;;;6.10;5.50;;;;;;;-0.45;100.00;97725.06;5108882;28;20192;-80
2023/12/02 00:30:38;;;;;;;5.80;5.23;;;;;;;-0.43;100.00;97719.63;5098563;27;20211;-80
2023/12/02 00:33:10;;;;;;;5.70;5.20;;;;;;;-0.43;100.00;97715.16;5092924;28;20192;-80
2023/12/02 00:35:37;;;;;;;6.27;5.67;;;;;;;-0.46;100.00;97713.72;5098507;28;20207;-80
2023/12/02 00:38:11;;;;;;;6.07;5.57;;;;;;;-0.47;100.00;97719.97;5095738;28;20184;-80
2023/12/02 00:40:38;;;;;;;6.23;5.40;;;;;;;-0.46;100.00;97728.69;5097962;28;20208;-80
2023/12/02 00:43:05;;;;;;;6.90;6.20;;;;;;;-0.49;100.00;97723.84;5101610;28;20273;-79
2023/12/02 00:45:32;;;;;;;6.37;5.77;;;;;;;-0.45;100.00;97730.31;5108183;28;20214;-80
2023/12/02 00:48:01;;;;;;;6.07;5.43;;;;;;;-0.42;100.00;97744.91;5113338;28;20230;-79
2023/12/02 00:50:32;;;;;;;6.20;5.63;;;;;;;-0.40;100.00;97751.59;5084083;28;20202;-80
2023/12/02 00:52:59;;;;;;;6.00;5.40;;;;;;;-0.37;100.00;97753.81;5108105;28;20663;-81
2023/12/02 00:55:28;;;;;;;6.17;5.50;;;;;;;-0.36;100.00;97741.47;5106239;28;20725;-82
2023/12/02 00:57:56;;;;;;;7.13;5.90;;;;;;;-0.36;100.00;97744.94;5097656;28;20203;-82
2023/12/02 01:00:23;;;;;;;6.60;5.90;;;;;;;-0.35;100.00;97740.47;5097098;28;20203;-81
2023/12/02 01:02:53;;;;;;;5.80;5.30;;;;;;;-0.31;100.00;97741.72;5108938;28;20683;-79
2023/12/02 01:05:20;;;;;;;6.17;5.57;;;;;;;-0.33;100.00;97726.13;5105743;28;20218;-80
2023/12/02 01:07:47;;;;;;;6.07;5.47;;;;;;;-0.33;100.00;97722.69;5092954;28;20234;-83
2023/12/02 01:10:16;;;;;;;6.53;5.93;;;;;;;-0.35;100.00;97722.06;5102171;28;20705;-80
2023/12/02 01:12:43;;;;;;;5.73;5.23;;;;;;;-0.35;100.00;97725.50;5098315;28;20200;-80
2023/12/02 01:15:10;;;;;;;6.20;5.60;;;;;;;-0.37;100.00;97718.84;5101140;28;20210;-79
2023/12/02 01:17:42;;;;;;;6.40;5.80;;;;;;;-0.33;100.00;97725.31;5108401;28;20194;-83
2023/12/02 01:20:10;;;;;;;6.10;5.50;;;;;;;-0.37;100.00;97703.84;5097889;28;20203;-79
2023/12/02 01:22:38;;;;;;;7.03;5.83;;;;;;;-0.35;100.00;97714.16;5087545;28;20208;-80
2023/12/02 01:25:05;;;;;;;7.53;6.40;;;;;;;-0.34;100.00;97715.81;5095780;28;20204;-81
2023/12/02 01:27:32;;;;;;;6.80;6.20;;;;;;;-0.33;100.00;97712.16;5100147;28;20195;-80
2023/12/02 01:30:00;;;;;;;7.07;6.47;;;;;;;-0.31;100.00;97723.28;5097124;28;20213;-80
2023/12/02 01:32:27;;;;;;;6.87;6.27;;;;;;;-0.30;100.00;97722.28;5078708;28;20216;-80
2023/12/02 01:34:54;;;;;;;9.03;7.53;;;;;;;-0.34;100.00;97727.13;5090952;28;20199;-79
2023/12/02 01:37:21;;;;;;;8.53;7.50;;;;;;;-0.34;100.00;97708.72;5096697;28;20196;-79
2023/12/02 01:39:51;;;;;;;7.73;6.93;;;;;;;-0.32;100.00;97726.94;5090647;28;20183;-79
2023/12/02 01:42:18;;;;;;;9.23;7.47;;;;;;;-0.32;100.00;97726.94;5095716;28;20200;-85
2023/12/02 01:44:45;;;;;;;9.80;7.83;;;;;;;-0.34;100.00;97736.84;5102522;28;20291;-80
2023/12/02 01:47:15;;;;;;;9.50;7.73;;;;;;;-0.34;100.00;97742.94;5092759;28;20231;-78
2023/12/02 01:49:43;;;;;;;9.30;8.33;;;;;;;-0.33;100.00;97734.03;5094890;28;20239;-81
2023/12/02 01:52:13;;;;;;;9.83;8.83;;;;;;;-0.32;100.00;97747.97;5093608;28;20239;-79
2023/12/02 01:54:46;;;;;;;9.90;8.73;;;;;;;-0.28;100.00;97747.38;5101178;28;20648;-80
2023/12/02 01:57:13;;;;;;;13.03;8.97;;;;;;;-0.28;100.00;97736.84;5093747;28;20197;-80
2023/12/02 01:59:45;;;;;;;10.70;8.90;;;;;;;-0.30;100.00;97728.38;5085057;28;20203;-80
2023/12/02 02:02:13;;;;;;;11.03;9.03;;;;;;;-0.35;100.00;97730.78;5110014;28;20279;-79
2023/12/02 02:04:40;;;;;;;10.30;9.23;;;;;;;-0.36;100.00;97726.50;5106433;28;20199;-79
2023/12/02 02:07:09;;;;;;;11.23;9.00;;;;;;;-0.38;100.00;97723.28;5096452;28;20235;-80
2023/12/02 02:09:48;;;;;;;10.23;9.10;;;;;;;-0.40;100.00;97720.03;5101492;28;20264;-81
2023/12/02 02:12:16;;;;;;;10.80;9.33;;;;;;;-0.42;100.00;97700.19;5102296;28;20270;-79
2023/12/02 02:14:45;;;;;;;12.20;10.30;;;;;;;-0.41;100.00;97701.78;5095268;28;20195;-79
2023/12/02 02:17:12;;;;;;;10.90;9.80;;;;;;;-0.35;100.00;97704.47;5098682;28;20245;-79
2023/12/02 02:19:46;;;;;;;11.37;10.10;;;;;;;-0.39;100.00;97708.50;5104142;28;20188;-79
2023/12/02 02:22:18;;;;;;;11.73;9.87;;;;;;;-0.38;100.00;97696.16;5103682;28;20721;-83
2023/12/02 02:24:49;;;;;;;11.40;9.17;;;;;;;-0.39;100.00;97686.63;5094556;28;20596;-79
2023/12/02 02:27:16;;;;;;;11.50;10.30;;;;;;;-0.40;100.00;97712.13;5105772;28;20215;-82
2023/12/02 02:29:46;;;;;;;11.43;10.17;;;;;;;-0.39;100.00;97703.22;5096814;28;20703;-80
2023/12/02 02:32:18;;;;;;;11.03;9.87;;;;;;;-0.36;100.00;97689.66;5105669;28;20304;-79
2023/12/02 02:34:48;;;;;;;11.67;10.43;;;;;;;-0.40;100.00;97679.75;5102284;28;20217;-79
2023/12/02 02:37:15;;;;;;;11.67;10.47;;;;;;;-0.41;100.00;97680.75;5100886;28;20215;-79
2023/12/02 02:39:42;;;;;;;11.53;10.33;;;;;;;-0.40;100.00;97675.28;5108365;28;20211;-79
2023/12/02 02:42:11;;;;;;;13.00;10.57;;;;;;;-0.40;100.00;97675.28;5103559;28;20203;-79
2023/12/02 02:44:38;;;;;;;11.67;10.43;;;;;;;-0.40;100.00;97674.47;5100432;28;20256;-79
2023/12/02 02:47:06;;;;;;;14.30;11.43;;;;;;;-0.40;100.00;97667.41;5096754;28;20218;-79
2023/12/02 02:49:33;;;;;;;14.50;10.80;;;;;;;-0.37;100.00;97671.47;5094316;28;20188;-82
2023/12/02 02:52:00;;;;;;;14.00;11.03;;;;;;;-0.39;100.00;97684.00;5096044;28;20300;-79
2023/12/02 02:54:29;;;;;;;12.53;10.60;;;;;;;-0.40;100.00;97685.81;5102049;28;20202;-79
2023/12/02 02:56:56;;;;;;;12.90;10.80;;;;;;;-0.42;100.00;97674.66;5106914;28;20219;-79
2023/12/02 02:59:28;;;;;;;16.77;11.07;;;;;;;-0.41;100.00;97684.19;5107637;28;20678;-79
2023/12/02 03:01:55;;;;;;;14.13;10.90;;;;;;;-0.40;100.00;97685.81;5098577;28;20233;-79
2023/12/02 03:04:26;;;;;;;12.43;10.30;;;;;;;-0.38;100.00;97680.38;5098460;28;20195;-79
2023/12/02 03:06:53;;;;;;;12.83;10.53;;;;;;;-0.41;100.00;97683.38;5097330;28;20223;-79
2023/12/02 03:09:21;;;;;;;12.33;11.03;;;;;;;-0.42;100.00;97689.66;5102077;28;20233;-79
2023/12/02 03:11:50;;;;;;;13.10;10.83;;;;;;;-0.46;100.00;97694.50;5104088;28;20202;-83
2023/12/02 03:14:17;;;;;;;13.17;10.50;;;;;;;-0.43;100.00;97674.88;5093060;28;20202;-80
2023/12/02 03:16:47;;;;;;;13.73;10.80;;;;;;;-0.43;100.00;97678.34;5104652;28;20257;-79
2023/12/02 03:19:14;;;;;;;15.13;11.17;;;;;;;-0.40;100.00;97675.28;5104133;28;20196;-79
2023/12/02 03:21:44;;;;;;;13.50;11.07;;;;;;;-0.37;100.00;97667.00;5098704;28;20188;-79
2023/12/02 03:24:11;;;;;;;12.43;11.13;;;;;;;-0.30;100.00;97659.94;5094374;28;20217;-80
2023/12/02 03:26:38;;;;;;;12.87;11.53;;;;;;;-0.33;100.00;97649.81;5104142;28;20222;-79
2023/12/02 03:29:05;;;;;;;14.07;11.30;;;;;;;-0.35;100.00;97648.38;5108641;28;20192;-81
2023/12/02 03:31:36;;;;;;;14.47;12.07;;;;;;;-0.45;100.00;97628.53;5104392;28;20199;-79
2023/12/02 03:34:04;;;;;;;14.73;12.13;;;;;;;-0.45;100.00;97636.41;5100593;28;20188;-79
2023/12/02 03:36:30;;;;;;;13.97;12.13;;;;;;;-0.46;100.00;97641.88;5089344;28;20234;-80
2023/12/02 03:38:58;;;;;;;15.90;13.20;;;;;;;-0.49;100.00;97650.16;5106631;28;20583;-83
2023/12/02 03:41:26;;;;;;;16.07;12.90;;;;;;;-0.54;100.00;97650.75;5100499;28;20204;-79
2023/12/02 03:43:54;;;;;;;17.13;13.43;;;;;;;-0.47;100.00;97656.84;5104046;28;20204;-80
2023/12/02 03:46:28;;;;;;;15.73;13.27;;;;;;;-0.49;100.00;97664.13;5091252;28;20220;-79
2023/12/02 03:48:56;;;;;;;16.73;13.33;;;;;;;-0.52;100.00;97680.31;5102510;28;20227;-80
2023/12/02 03:51:26;;;;;;;16.10;13.63;;;;;;;-0.55;100.00;97670.19;5104295;28;20233;-79
2023/12/02 03:53:54;;;;;;;16.37;13.83;;;;;;;-0.54;100.00;97661.28;5096287;28;20213;-79
2023/12/02 03:56:21;;;;;;;15.73;14.03;;;;;;;-0.52;100.00;97669.00;5106937;28;20214;-79
2023/12/02 03:58:50;;;;;;;17.00;13.87;;;;;;;-0.51;100.00;97678.47;5115705;28;20651;-81
2023/12/02 04:01:18;;;;;;;17.10;14.53;;;;;;;-0.51;100.00;97681.94;5097380;28;20199;-79
2023/12/02 04:03:47;;;;;;;18.30;14.77;;;;;;;-0.49;100.00;97673.84;5098019;28;20192;-79
2023/12/02 04:06:16;;;;;;;15.93;13.50;;;;;;;-0.49;100.00;97673.84;5097508;28;20208;-79
2023/12/02 04:08:43;;;;;;;17.13;14.20;;;;;;;-0.49;100.00;97684.38;5106995;28;20216;-80
2023/12/02 04:11:10;;;;;;;17.60;14.20;;;;;;;-0.50;100.00;97677.47;5102992;28;20192;-80
2023/12/02 04:13:40;;;;;;;17.33;14.50;;;;;;;-0.49;100.00;97671.22;5106902;28;20256;-79
2023/12/02 04:16:13;;;;;;;18.17;14.93;;;;;;;-0.54;100.00;97671.81;5104377;28;20187;-79
2023/12/02 04:18:44;;;;;;;18.17;14.73;;;;;;;-0.53;100.00;97683.16;5105574;28;20224;-80
2023/12/02 04:21:13;;;;;;;17.67;14.60;;;;;;;-0.53;100.00;97670.81;5099332;28;20232;-79
2023/12/02 04:23:40;;;;;;;18.73;15.03;;;;;;;-0.51;100.00;97675.84;5099575;28;20195;-79
2023/12/02 04:26:07;;;;;;;18.47;14.87;;;;;;;-0.46;100.00;97660.28;5096124;28;20242;-79
2023/12/02 04:28:35;;;;;;;20.70;15.53;;;;;;;-0.47;100.00;97662.09;5094656;28;20230;-80
2023/12/02 04:31:04;;;;;;;17.67;14.87;;;;;;;-0.52;100.00;97664.53;5094771;28;20283;-79
2023/12/02 04:33:32;;;;;;;16.83;14.33;;;;;;;-0.52;100.00;97666.38;5101371;28;20751;-80
2023/12/02 04:35:59;;;;;;;19.60;14.80;;;;;;;-0.52;100.00;97653.22;5094000;28;20246;-81
2023/12/02 04:38:30;;;;;;;18.17;15.00;;;;;;;-0.51;100.00;97666.13;5114400;28;20255;-79
2023/12/02 04:41:00;;;;;;;17.80;14.63;;;;;;;-0.53;100.00;97673.44;5115146;28;20274;-81
2023/12/02 04:43:28;;;;;;;19.13;14.87;;;;;;;-0.55;100.00;97672.81;5105286;28;20196;-83
2023/12/02 04:45:55;;;;;;;17.53;14.37;;;;;;;-0.59;100.00;97663.69;5114769;28;20208;-79
2023/12/02 04:48:27;;;;;;;17.63;14.33;;;;;;;-0.56;100.00;97662.50;5100590;28;20199;-79
2023/12/02 04:50:59;;;;;;;20.07;15.23;;;;;;;-0.54;100.00;97665.72;5106388;28;20239;-79
2023/12/02 04:53:28;;;;;;;19.67;14.67;;;;;;;-0.58;100.00;97649.53;5091373;28;20211;-80
2023/12/02 04:55:55;;;;;;;17.90;14.63;;;;;;;-0.57;100.00;97666.94;5092383;28;20219;-80
2023/12/02 04:58:22;;;;;;;17.07;14.13;;;;;;;-0.60;100.00;97663.88;5095059;28;20257;-79
2023/12/02 05:00:49;;;;;;;16.97;13.80;;;;;;;-0.60;100.00;97664.69;5089461;28;20652;-79
2023/12/02 05:03:21;;;;;;;17.27;14.07;;;;;;;-0.57;100.00;97672.22;5089607;28;20192;-79
2023/12/02 05:05:54;;;;;;;16.73;13.53;;;;;;;-0.60;100.00;97680.47;5101195;28;20196;-80
2023/12/02 05:08:40;;;;;;;18.73;14.23;;;;;;;-0.59;100.00;97683.91;5094283;28;20231;-80
2023/12/02 05:11:10;;;;;;;17.13;14.63;;;;;;;-0.62;100.00;97687.75;5094271;28;20246;-80
2023/12/02 05:13:39;;;;;;;19.57;14.50;;;;;;;-0.62;100.00;97684.31;5102395;28;20192;-80
2023/12/02 05:16:25;;;;;;;18.83;15.03;;;;;;;-0.61;100.00;97684.13;5094825;28;20280;-79
2023/12/02 05:18:52;;;;;;;18.23;14.47;;;;;;;-0.60;100.00;97669.13;5100846;28;20200;-80
2023/12/02 05:21:20;;;;;;;17.27;13.80;;;;;;;-0.64;100.00;97671.34;5106779;28;20195;-79
2023/12/02 05:23:47;;;;;;;16.87;13.90;;;;;;;-0.62;100.00;97681.69;5105939;28;20195;-79
2023/12/02 05:26:21;;;;;;;17.80;13.87;;;;;;;-0.62;100.00;97686.94;5110423;28;20256;-81
2023/12/02 05:28:53;;;;;;;16.03;13.17;;;;;;;-0.61;100.00;97699.91;5102122;28;20192;-80
2023/12/02 05:31:21;;;;;;;16.90;13.60;;;;;;;-0.63;100.00;97711.63;5103275;28;20196;-79
2023/12/02 05:33:51;;;;;;;16.17;13.37;;;;;;;-0.61;100.00;97696.47;5095890;28;20207;-79
2023/12/02 05:36:20;;;;;;;16.80;12.80;;;;;;;-0.58;100.00;97688.19;5110650;28;20231;-79
2023/12/02 05:38:49;;;;;;;14.80;12.17;;;;;;;-0.60;100.00;97692.81;5084463;28;20203;-81
2023/12/02 05:41:19;;;;;;;16.23;12.83;;;;;;;-0.66;100.00;97677.84;5093458;28;20192;-79
2023/12/02 05:43:45;;;;;;;15.73;12.97;;;;;;;-0.64;100.00;97689.78;5104805;28;20189;-79
2023/12/02 05:46:19;;;;;;;15.07;12.20;;;;;;;-0.64;100.00;97697.66;5100556;28;20188;-82
2023/12/02 05:48:47;;;;;;;15.23;12.50;;;;;;;-0.65;100.00;97680.25;5101374;28;20196;-79
2023/12/02 05:51:14;;;;;;;13.90;11.83;;;;;;;-0.67;100.00;97700.69;5096117;28;20228;-80
2023/12/02 05:53:42;;;;;;;15.20;11.97;;;;;;;-0.59;100.00;97689.19;5102349;27;20192;-79
2023/12/02 05:56:10;;;;;;;14.43;12.50;;;;;;;-0.64;100.00;97704.72;5101476;28;20196;-80
2023/12/02 05:58:37;;;;;;;22.67;11.97;;;;;;;-0.66;100.00;97698.88;5088320;28;20195;-82
2023/12/02 06:01:07;;;;;;;16.80;12.13;;;;;;;-0.63;100.00;97701.91;5104897;28;20187;-81
2023/12/02 06:03:34;;;;;;;13.57;11.57;;;;;;;-0.64;100.00;97712.63;5075460;28;20245;-79
2023/12/02 06:06:02;;;;;;;16.10;12.23;;;;;;;-0.63;100.00;97709.81;5105367;28;20651;-81
2023/12/02 06:08:29;;;;;;;13.33;11.63;;;;;;;-0.61;100.00;97738.56;5113410;28;20245;-80
2023/12/02 06:10:56;;;;;;;15.10;11.70;;;;;;;-0.57;100.00;97702.97;5101593;28;20206;-80
2023/12/02 06:13:22;;;;;;;15.13;12.67;;;;;;;-0.66;100.00;97693.63;5109100;28;20237;-83
2023/12/02 06:15:52;;;;;;;14.30;11.40;;;;;;;-0.64;100.00;97710.81;5094972;28;20203;-80
2023/12/02 06:18:21;;;;;;;14.57;11.13;;;;;;;-0.65;100.00;97718.88;5105944;28;20198;-84
2023/12/02 06:20:55;;;;;;;14.57;12.23;;;;;;;-0.64;100.00;97717.88;5090622;28;20191;-80
2023/12/02 06:23:24;;;;;;;14.83;11.73;;;;;;;-0.63;100.00;97730.03;5110479;28;20199;-81
2023/12/02 06:25:51;;;;;;;13.20;11.57;;;;;;;-0.59;100.00;97726.81;5106231;28;20196;-80
2023/12/02 06:28:20;;;;;;;15.50;12.17;;;;;;;-0.60;100.00;97719.13;5094109;28;20212;-80
2023/12/02 06:30:48;;;;;;;13.57;11.83;;;;;;;-0.62;100.00;97724.59;5078075;28;20231;-82
2023/12/02 06:33:15;;;;;;;17.20;12.93;;;;;;;-0.58;100.00;97727.63;5103174;28;20202;-81
2023/12/02 06:35:43;;;;;;;16.00;13.17;;;;;;;-0.59;100.00;97745.22;5099867;28;20265;-80
2023/12/02 06:38:10;;;;;;;16.03;13.07;;;;;;;-0.61;100.00;97739.38;5098746;28;20571;-81
2023/12/02 06:40:37;;;;;;;16.90;13.60;;;;;;;-0.63;100.00;97751.88;5089702;28;20257;-80
2023/12/02 06:43:03;;;;;;;19.07;13.60;;;;;;;-0.64;100.00;97750.25;5103473;28;20660;-81
2023/12/02 06:45:30;;;;;;;15.93;14.07;;;;;;;-0.66;100.00;97733.88;5097498;28;20199;-80
2023/12/02 06:47:57;;;;;;;16.90;13.73;;;;;;;-0.68;100.00;97729.81;5096089;28;20208;-83
2023/12/02 06:50:27;;;;;;;17.37;13.63;;;;;;;-0.61;100.00;97722.78;5091967;28;20192;-82
2023/12/02 06:52:54;;;;;;;16.93;14.10;;;;;;;-0.59;100.00;97724.19;5098247;28;20227;-81
2023/12/02 06:55:27;;;;;;;16.63;14.27;;;;;;;-0.56;100.00;97723.78;5103165;28;20187;-80
2023/12/02 06:58:03;;;;;;;17.97;14.93;;;;;;;-0.57;100.00;97737.97;5098228;28;20227;-81
2023/12/02 07:00:30;;;;;;;18.00;14.50;;;;;;;-0.58;100.00;97740.78;5106865;28;20207;-80
2023/12/02 07:02:57;;;;;;;18.27;14.57;;;;;;;-0.55;100.00;97727.22;5104796;28;20232;-80
2023/12/02 07:05:24;;;;;;;18.27;14.83;;;;;;;-0.60;100.00;97721.75;5077788;28;20200;-80
2023/12/02 07:07:58;;;;;;;20.50;15.63;;;;;;;-0.53;100.00;97722.59;5104242;28;20761;-80
2023/12/02 07:10:27;;;;;;;18.03;14.67;;;;;;;-0.54;100.00;97737.56;5101896;28;20200;-80
2023/12/02 07:12:57;;;;;;;17.90;15.10;;;;;;;-0.52;100.00;97748.72;5098862;28;20189;-80
2023/12/02 07:15:26;;;;;;;19.67;15.43;;;;;;;-0.50;100.00;97761.66;5100830;28;20202;-81
2023/12/02 07:17:53;;;;;;;20.10;15.90;;;;;;;-0.56;100.00;97760.63;5097633;28;20212;-82
2023/12/02 07:20:20;;;;;;;21.70;16.67;;;;;;;-0.54;100.00;97755.16;5082848;28;20206;-82
2023/12/02 07:22:54;;;;;;;20.17;16.73;;;;;;;-0.56;100.00;97755.34;5059473;28;20723;-81
2023/12/02 07:25:21;;;;;;;22.43;17.03;;;;;;;-0.57;100.00;97759.00;5099811;28;20214;-82
2023/12/02 07:27:48;;;;;;;23.87;16.93;;;;;;;-0.53;100.00;97752.34;5087121;28;20330;-85
2023/12/02 07:30:15;;;;;;;21.43;16.87;;;;;;;-0.62;100.00;97743.00;5109273;28;20203;-81
2023/12/02 07:32:46;;;;;;;23.47;17.60;;;;;;;-0.50;100.00;97727.47;5083462;28;20241;-82
2023/12/02 07:35:13;;;;;;;23.87;17.30;;;;;;;-0.49;100.00;97713.31;5101878;28;20184;-81
2023/12/02 07:37:40;;;;;;;22.77;18.00;;;;;;;-0.48;100.00;97733.34;5101653;28;20212;-82
2023/12/02 07:40:07;;;;;;;22.63;17.83;;;;;;;-0.48;100.00;97735.97;5105702;28;20303;-81
2023/12/02 07:42:39;;;;;;;22.27;17.93;;;;;;;-0.43;100.00;97767.78;5080153;28;20204;-83
2023/12/02 07:45:07;;;;;;;20.77;17.47;;;;;;;-0.33;100.00;97762.97;5098136;28;20204;-82
2023/12/02 07:47:35;;;;;;;21.17;16.53;;;;;;;-0.28;100.00;97755.28;5095638;28;20227;-82
2023/12/02 07:50:02;;;;;;;23.30;17.87;;;;;;;-0.23;100.00;97739.72;5085465;28;20205;-84
2023/12/02 07:52:30;;;;;;;23.23;17.00;;;;;;;-0.21;100.00;97745.59;5070490;28;20231;-82
2023/12/02 07:54:57;;;;;;;22.67;17.00;;;;;;;-0.18;100.00;97744.38;5105676;28;20184;-82
2023/12/02 07:57:24;;;;;;;21.73;17.17;;;;;;;-0.13;100.00;97755.94;5105352;28;20195;-82
2023/12/02 07:59:51;;;;;;;19.47;16.37;;;;;;;-0.11;100.00;97756.59;5103978;28;20204;-81
2023/12/02 08:02:18;;;;;;;22.80;16.53;;;;;;;-0.12;100.00;97760.22;5103832;28;20195;-82
2023/12/02 08:04:47;;;;;;;21.20;15.03;;;;;;;-0.16;100.00;97745.00;5101609;28;20199;-85
2023/12/02 08:07:33;;;;;;;19.70;15.33;;;;;;;-0.06;100.00;97746.28;5102027;28;20216;-86
2023/12/02 08:10:00;;;;;;;17.37;15.03;;;;;;;-0.06;100.00;97729.66;5085405;28;20196;-84
2023/12/02 08:12:27;;;;;;;19.30;15.40;;;;;;;-0.05;100.00;97736.56;5105847;28;20739;-81
2023/12/02 08:14:54;;;;;;;18.33;14.63;;;;;;;-0.07;100.00;97747.28;5109379;28;20197;-82
2023/12/02 08:17:25;;;;;;;24.80;18.87;;;;;;;-0.06;100.00;97754.16;5109647;28;20192;-84
2023/12/02 08:19:51;;;;;;;17.03;13.40;;;;;;;-0.06;100.00;97756.81;5114168;28;20199;-82
2023/12/02 08:22:24;;;;;;;16.00;13.33;;;;;;;0.03;100.00;97756.63;5101952;28;20188;-83
2023/12/02 08:24:52;;;;;;;16.73;14.27;;;;;;;-0.04;100.00;97762.66;5101894;28;20284;-81
2023/12/02 08:27:21;;;;;;;16.27;13.23;;;;;;;-0.04;100.00;97777.66;5090002;28;20268;-81
2023/12/02 08:29:48;;;;;;;15.47;12.47;;;;;;;-0.12;100.00;97762.84;5096392;28;20208;-81
2023/12/02 08:32:14;;;;;;;17.43;12.63;;;;;;;-0.12;100.00;97752.31;5099926;28;20215;-80
2023/12/02 08:34:43;;;;;;;16.03;13.63;;;;;;;-0.16;100.00;97777.41;5099328;28;20217;-82
2023/12/02 08:37:11;;;;;;;17.33;12.93;;;;;;;-0.03;100.00;97745.06;5086161;28;20188;-82
2023/12/02 08:39:42;;;;;;;16.87;13.10;;;;;;;0.07;100.00;97763.09;5103406;28;20270;-81
2023/12/02 08:42:09;;;;;;;16.90;13.40;;;;;;;0.00;100.00;97757.84;5097034;28;20705;-83
2023/12/02 08:44:40;;;;;;;17.60;13.70;;;;;;;0.05;100.00;97760.66;5068359;28;20200;-80
2023/12/02 08:47:12;;;;;;;17.70;14.07;;;;;;;0.03;100.00;97769.78;5100323;28;20221;-83
2023/12/02 08:49:41;;;;;;;16.83;13.93;;;;;;;0.03;100.00;97796.94;5104783;28;20195;-82
2023/12/02 08:52:12;;;;;;;17.03;13.03;;;;;;;-0.01;100.00;97800.97;5104830;28;20236;-83
2023/12/02 08:54:42;;;;;;;15.87;12.83;;;;;;;-0.03;100.00;97798.53;5099557;28;20230;-81
2023/12/02 08:57:09;;;;;;;17.77;14.17;;;;;;;-0.07;100.00;97797.28;5108678;28;20260;-80
2023/12/02 08:59:36;;;;;;;17.10;13.10;;;;;;;-0.16;100.00;97787.94;5098875;28;20236;-81
2023/12/02 09:02:05;;;;;;;14.93;12.60;;;;;;;-0.16;100.00;97777.41;5102860;28;20227;-81
2023/12/02 09:04:32;;;;;;;17.30;14.10;;;;;;;-0.11;100.00;97782.09;5068074;28;20209;-80
2023/12/02 09:07:02;;;;;;;16.97;13.73;;;;;;;-0.13;100.00;97773.56;5093085;28;20208;-81
2023/12/02 09:09:29;;;;;;;17.53;14.13;;;;;;;-0.08;100.00;97773.78;5110429;28;20667;-80
2023/12/02 09:11:56;;;;;;;18.63;14.23;;;;;;;-0.08;100.00;97777.25;5113987;28;20267;-83
2023/12/02 09:14:24;;;;;;;15.23;13.20;;;;;;;-0.07;100.00;97770.16;5105493;28;20191;-80
2023/12/02 09:16:53;;;;;;;18.00;14.23;;;;;;;-0.08;100.00;97779.88;5101495;28;20592;-80
2023/12/02 09:19:20;;;;;;;18.40;13.40;;;;;;;-0.04;100.00;97781.09;5110421;28;20202;-81
2023/12/02 09:21:47;;;;;;;23.07;14.63;;;;;;;-0.04;100.00;97780.28;5087653;28;20580;-82
2023/12/02 09:24:36;;;;;;;17.03;14.17;;;;;;;-0.07;100.00;97799.13;5111689;28;20206;-82
2023/12/02 09:27:06;;;;;;;16.85;13.00;;;;;;;-0.11;100.00;97798.69;5094268;28;20210;-80
2023/12/02 09:29:40;;;;;;;18.07;14.30;;;;;;;-0.06;100.00;97795.47;5103902;28;20209;-80
2023/12/02 09:32:19;;;;;;;18.10;13.10;;;;;;;-0.01;100.00;97785.16;5095547;28;20207;-81
2023/12/02 09:34:56;;;;;;;16.77;13.23;;;;;;;-0.06;100.00;97790.22;5094993;28;20207;-82
2023/12/02 09:37:35;;;;;;;16.60;12.93;;;;;;;-0.09;100.00;97791.41;5092750;28;20241;-80
2023/12/02 09:40:28;;;;;;;19.23;14.90;;;;;;;-0.11;100.00;97790.00;5089694;28;20287;-80
2023/12/02 09:42:56;;;;;;;17.00;12.97;;;;;;;-0.09;100.00;97780.06;5094825;28;20189;-81
2023/12/02 09:45:26;;;;;;;17.20;13.63;;;;;;;-0.11;100.00;97782.09;5095602;28;20187;-82
2023/12/02 09:48:26;;;;;;;17.17;13.43;;;;;;;-0.07;100.00;97781.50;5088653;28;20215;-79
2023/12/02 09:51:14;;;;;;;16.07;12.97;;;;;;;-0.11;100.00;97797.88;5091520;28;20228;-80
2023/12/02 09:53:48;;;;;;;16.07;12.30;;;;;;;-0.15;100.00;97812.44;5098570;28;20216;-80
2023/12/02 09:56:30;;;;;;;16.33;13.57;;;;;;;-0.13;100.00;97811.22;5076786;28;20189;-80
2023/12/02 09:59:10;;;;;;;16.77;12.90;;;;;;;-0.18;100.00;97792.56;5090721;28;20270;-82
2023/12/02 10:02:04;;;;;;;16.47;13.00;;;;;;;-0.20;100.00;97759.59;5098561;28;20278;-81
2023/12/02 10:04:52;;;;;;;17.40;13.33;;;;;;;-0.23;100.00;97766.03;5068800;28;20212;-80
2023/12/02 10:07:51;;;;;;;17.87;13.87;;;;;;;-0.24;100.00;97780.22;5094736;28;20243;-80
2023/12/02 10:10:26;;;;;;;15.63;12.57;;;;;;;-0.15;100.00;97786.13;5097013;28;20321;-81
2023/12/02 10:13:16;;;;;;;15.23;12.30;;;;;;;-0.12;100.00;97781.28;5097182;28;20188;-80
2023/12/02 10:15:48;;;;;;;17.90;13.47;;;;;;;-0.27;100.00;97769.25;5095459;28;20270;-82
2023/12/02 10:18:17;;;;;;;17.87;13.13;;;;;;;-0.20;100.00;97765.66;5096243;28;20212;-82
2023/12/02 10:20:44;;;;;;;15.83;12.57;;;;;;;-0.23;100.00;97755.50;5093754;28;20188;-81
2023/12/02 10:23:25;;;;;;;21.27;16.57;;;;;;;-0.30;100.00;97748.59;5085408;28;20647;-80
2023/12/02 10:26:04;;;;;;;16.43;12.93;;;;;;;-0.32;100.00;97764.59;5107127;28;20210;-81
2023/12/02 10:28:37;;;;;;;17.50;12.90;;;;;;;-0.37;100.00;97759.09;5107441;28;20212;-81
2023/12/02 10:31:06;;;;;;;29.63;17.07;;;;;;;-0.32;100.00;97758.50;5091037;28;20295;-80
2023/12/02 10:34:14;;;;;;;18.03;13.67;;;;;;;-0.24;100.00;97756.53;5087795;28;20789;-85
2023/12/02 10:36:46;;;;;;;17.53;13.03;;;;;;;-0.28;100.00;97757.13;5094766;28;20203;-83
2023/12/02 10:39:25;;;;;;;15.43;12.93;;;;;;;-0.29;100.00;97756.31;5082101;28;20671;-85
2023/12/02 10:41:59;;;;;;;16.60;12.97;;;;;;;-0.32;100.00;97751.41;5091787;28;20196;-84
2023/12/02 10:44:29;;;;;;;20.50;14.80;;;;;;;-0.31;100.00;97762.75;5091421;28;20226;-85
2023/12/02 10:46:58;;;;;;;18.23;14.20;;;;;;;-0.31;100.00;97747.78;5096261;28;20219;-86
2023/12/02 10:49:31;;;;;;;17.57;13.03;;;;;;;-0.36;100.00;97747.56;5073968;28;20217;-82
2023/12/02 10:52:00;;;;;;;17.67;13.10;;;;;;;-0.34;100.00;97750.00;5094270;28;20720;-86
2023/12/02 10:54:33;;;;;;;16.57;12.53;;;;;;;-0.37;100.00;97748.56;5070899;28;20664;-82
2023/12/02 10:57:06;;;;;;;18.70;13.90;;;;;;;-0.41;100.00;97752.59;5097844;28;20206;-84
2023/12/02 10:59:49;;;;;;;16.97;12.80;;;;;;;-0.42;100.00;97745.69;5085864;28;20206;-82
2023/12/02 11:02:26;;;;;;;16.70;12.97;;;;;;;-0.36;100.00;97741.47;5071479;28;20261;-84
2023/12/02 11:05:14;;;;;;;17.37;12.50;;;;;;;-0.28;100.00;97747.38;5094881;28;20644;-81
2023/12/02 11:07:49;;;;;;;16.43;12.87;;;;;;;-0.36;100.00;97778.31;5090007;28;20211;-83
2023/12/02 11:10:19;;;;;;;19.50;13.40;;;;;;;-0.40;100.00;97780.53;5093700;28;20211;-82
2023/12/02 11:12:56;;;;;;;18.03;13.73;;;;;;;-0.45;100.00;97772.41;5079766;28;20196;-82
2023/12/02 11:15:23;;;;;;;17.13;13.50;;;;;;;-0.35;100.00;97790.47;5092719;28;20199;-82
2023/12/02 11:18:06;;;;;;;19.17;14.00;;;;;;;-0.38;100.00;97796.13;5095529;28;20184;-83
2023/12/02 11:20:55;;;;;;;16.60;12.57;;;;;;;-0.36;100.00;97796.75;5085813;28;20196;-82
2023/12/02 11:23:53;;;;;;;18.97;12.43;;;;;;;-0.38;100.00;97790.88;5090613;28;20207;-82
2023/12/02 11:26:56;;;;;;;16.40;12.23;;;;;;;-0.44;100.00;97802.97;5081436;28;20195;-81